Eagle River, AK (99577)

7:22 PM AKDT on July 24, 2016 (GMT -0800)
Chatanika Loop | | Change Station

Elev 590 ft 61.32 °N, 149.54 °W | Updated 12 minutes ago

Overcast
Overcast
56.9 °F
Feels Like 56.9 °F
N
0.0
Wind Variable Wind from WSW
Gusts 2.0 mph

Today
High -- | Low -- °F
--% Chance of Precip.
Yesterday
High -- | Low -- °F
Precip. -- in
Pressure 29.64 in
Visibility 10.0 miles
Clouds Scattered Clouds 800 ft
Overcast 1300 ft
Dew Point 52 °F
Humidity 83%
Rainfall 0.48 in
Snow Depth Not available.
5:11 AM 10:56 PM
Waning Gibbous, 70% visible
METAR PAFR 250314Z AUTO 36003KT 10SM SCT008 OVC013 14/14 A2964 RMK AO1
Pressure 29.64 in
Visibility 10.0 miles
Clouds Scattered Clouds 800 ft
Overcast 1300 ft
Dew Point 52 °F
Humidity 83%
Rainfall 0.48 in
Snow Depth Not available.
5:11 AM 10:56 PM
Waning Gibbous, 70% visible
METAR PAFR 250314Z AUTO 36003KT 10SM SCT008 OVC013 14/14 A2964 RMK AO1

10-Day Weather Forecast

Almanac

Astronomy

Jul. 24, 2016 Rise Set
Actual Time
Civil Twilight
Nautical Twilight
Astronomical Twilight
Moon
Length of Visible Light
Length of Day
Tomorrow will be .
, % of the Moon is Illuminated

Today's Extremes

State Highs State Lows

Community

WunderPhotos

Upload Photos

1,927,256 photos uploaded!

WunderBlog® & News

Nearby

Air Quality

  Air Quality AQ Index Pollutant
Not available.

Snow Depth

Station Depth Elevation

Earthquake Activity

City Distance Mag. Time & Date
Minimum magnitude displayed is 2.5.

Coastal Water Temperatures

Place Temperature

Stations

Nearby Weather Stations

Station Location Temp. Windchill Dew Point Humidity Wind Precip. Elev Updated Type
                   

Watches & Warnings

There are currently no watches in effect.